sensor_id;sensor_type;location;lat;lon;timestamp;P1;durP1;ratioP1;P2;durP2;ratioP2
59434;SDS011;45241;49.768;8.636;2023-02-23T00:01:14;40.55;;;20.67;;
59434;SDS011;45241;49.768;8.636;2023-02-23T00:03:42;38.83;;;18.98;;
59434;SDS011;45241;49.768;8.636;2023-02-23T00:06:08;38.35;;;19.33;;
59434;SDS011;45241;49.768;8.636;2023-02-23T00:08:34;35.65;;;18.77;;
59434;SDS011;45241;49.768;8.636;2023-02-23T00:11:04;37.97;;;18.35;;
59434;SDS011;45241;49.768;8.636;2023-02-23T00:13:34;37.95;;;19.85;;
59434;SDS011;45241;49.768;8.636;2023-02-23T00:16:04;35.25;;;19.90;;
59434;SDS011;45241;49.768;8.636;2023-02-23T00:18:36;39.75;;;20.02;;
59434;SDS011;45241;49.768;8.636;2023-02-23T00:21:12;39.85;;;20.52;;
59434;SDS011;45241;49.768;8.636;2023-02-23T00:23:50;41.42;;;22.00;;
59434;SDS011;45241;49.768;8.636;2023-02-23T00:26:20;39.88;;;21.30;;
59434;SDS011;45241;49.768;8.636;2023-02-23T00:28:47;38.75;;;21.95;;
59434;SDS011;45241;49.768;8.636;2023-02-23T00:31:14;45.47;;;21.70;;
59434;SDS011;45241;49.768;8.636;2023-02-23T00:33:40;42.28;;;22.83;;
59434;SDS011;45241;49.768;8.636;2023-02-23T00:36:07;46.17;;;22.85;;
59434;SDS011;45241;49.768;8.636;2023-02-23T00:38:35;44.10;;;22.88;;
59434;SDS011;45241;49.768;8.636;2023-02-23T00:41:08;41.90;;;22.77;;
59434;SDS011;45241;49.768;8.636;2023-02-23T00:43:36;39.03;;;22.70;;
59434;SDS011;45241;49.768;8.636;2023-02-23T00:46:03;44.78;;;23.45;;
59434;SDS011;45241;49.768;8.636;2023-02-23T00:48:33;41.78;;;22.13;;
59434;SDS011;45241;49.768;8.636;2023-02-23T00:51:03;36.67;;;20.90;;
59434;SDS011;45241;49.768;8.636;2023-02-23T00:53:29;40.63;;;21.23;;
59434;SDS011;45241;49.768;8.636;2023-02-23T00:55:55;40.58;;;21.40;;
59434;SDS011;45241;49.768;8.636;2023-02-23T00:58:21;43.70;;;23.02;;
59434;SDS011;45241;49.768;8.636;2023-02-23T01:00:48;38.42;;;22.05;;
59434;SDS011;45241;49.768;8.636;2023-02-23T01:03:13;43.70;;;22.77;;
59434;SDS011;45241;49.768;8.636;2023-02-23T01:05:38;40.00;;;21.95;;
59434;SDS011;45241;49.768;8.636;2023-02-23T01:08:04;41.72;;;22.48;;
59434;SDS011;45241;49.768;8.636;2023-02-23T01:10:33;38.83;;;21.17;;
59434;SDS011;45241;49.768;8.636;2023-02-23T01:13:00;38.95;;;21.73;;
59434;SDS011;45241;49.768;8.636;2023-02-23T01:15:26;37.40;;;20.92;;
59434;SDS011;45241;49.768;8.636;2023-02-23T01:17:51;42.45;;;21.05;;
59434;SDS011;45241;49.768;8.636;2023-02-23T01:20:17;46.83;;;22.95;;
59434;SDS011;45241;49.768;8.636;2023-02-23T01:22:47;37.90;;;20.73;;
59434;SDS011;45241;49.768;8.636;2023-02-23T01:25:14;38.17;;;21.67;;
59434;SDS011;45241;49.768;8.636;2023-02-23T01:27:40;39.35;;;20.42;;
59434;SDS011;45241;49.768;8.636;2023-02-23T01:30:08;37.95;;;20.48;;
59434;SDS011;45241;49.768;8.636;2023-02-23T01:32:35;37.10;;;19.77;;
59434;SDS011;45241;49.768;8.636;2023-02-23T01:35:04;36.17;;;20.90;;
59434;SDS011;45241;49.768;8.636;2023-02-23T01:37:35;33.83;;;20.13;;
59434;SDS011;45241;49.768;8.636;2023-02-23T01:40:04;35.45;;;20.20;;
59434;SDS011;45241;49.768;8.636;2023-02-23T01:42:37;38.13;;;20.98;;
59434;SDS011;45241;49.768;8.636;2023-02-23T01:47:50;35.38;;;19.67;;
59434;SDS011;45241;49.768;8.636;2023-02-23T01:50:18;37.00;;;20.48;;
59434;SDS011;45241;49.768;8.636;2023-02-23T01:52:44;37.45;;;19.30;;
59434;SDS011;45241;49.768;8.636;2023-02-23T01:55:14;32.90;;;19.25;;
59434;SDS011;45241;49.768;8.636;2023-02-23T01:57:47;36.58;;;20.75;;
59434;SDS011;45241;49.768;8.636;2023-02-23T02:00:14;31.20;;;18.35;;
59434;SDS011;45241;49.768;8.636;2023-02-23T02:02:43;38.53;;;21.23;;
59434;SDS011;45241;49.768;8.636;2023-02-23T02:05:09;34.15;;;18.98;;
59434;SDS011;45241;49.768;8.636;2023-02-23T02:07:38;36.17;;;20.27;;
59434;SDS011;45241;49.768;8.636;2023-02-23T02:10:09;34.75;;;19.00;;
59434;SDS011;45241;49.768;8.636;2023-02-23T02:12:36;36.78;;;19.70;;
59434;SDS011;45241;49.768;8.636;2023-02-23T02:15:03;35.85;;;19.42;;
59434;SDS011;45241;49.768;8.636;2023-02-23T02:17:39;30.73;;;18.17;;
59434;SDS011;45241;49.768;8.636;2023-02-23T02:23:07;34.83;;;18.90;;
59434;SDS011;45241;49.768;8.636;2023-02-23T02:39:14;33.72;;;19.20;;
59434;SDS011;45241;49.768;8.636;2023-02-23T02:50:40;42.88;;;21.08;;
59434;SDS011;45241;49.768;8.636;2023-02-23T02:53:13;36.30;;;20.10;;
59434;SDS011;45241;49.768;8.636;2023-02-23T02:55:46;36.10;;;20.40;;
59434;SDS011;45241;49.768;8.636;2023-02-23T02:58:14;34.83;;;19.83;;
59434;SDS011;45241;49.768;8.636;2023-02-23T03:00:46;39.95;;;21.42;;
59434;SDS011;45241;49.768;8.636;2023-02-23T03:06:32;36.60;;;21.33;;
59434;SDS011;45241;49.768;8.636;2023-02-23T03:09:20;37.08;;;20.70;;
59434;SDS011;45241;49.768;8.636;2023-02-23T03:19:05;37.72;;;21.70;;
59434;SDS011;45241;49.768;8.636;2023-02-23T03:22:00;35.97;;;20.52;;
59434;SDS011;45241;49.768;8.636;2023-02-23T03:24:57;36.83;;;20.83;;
59434;SDS011;45241;49.768;8.636;2023-02-23T03:27:51;36.38;;;21.33;;
59434;SDS011;45241;49.768;8.636;2023-02-23T03:30:42;38.15;;;22.42;;
59434;SDS011;45241;49.768;8.636;2023-02-23T03:33:44;38.33;;;21.58;;
59434;SDS011;45241;49.768;8.636;2023-02-23T03:36:38;39.35;;;21.83;;
59434;SDS011;45241;49.768;8.636;2023-02-23T03:42:26;43.10;;;24.55;;
59434;SDS011;45241;49.768;8.636;2023-02-23T03:45:13;42.42;;;25.67;;
59434;SDS011;45241;49.768;8.636;2023-02-23T03:48:02;45.63;;;26.52;;
59434;SDS011;45241;49.768;8.636;2023-02-23T03:50:52;47.63;;;26.85;;
59434;SDS011;45241;49.768;8.636;2023-02-23T03:53:40;44.97;;;25.98;;
59434;SDS011;45241;49.768;8.636;2023-02-23T03:56:30;42.55;;;24.88;;
59434;SDS011;45241;49.768;8.636;2023-02-23T03:59:18;49.15;;;25.52;;
59434;SDS011;45241;49.768;8.636;2023-02-23T04:02:04;42.55;;;26.45;;
59434;SDS011;45241;49.768;8.636;2023-02-23T04:04:50;43.35;;;25.67;;
59434;SDS011;45241;49.768;8.636;2023-02-23T04:07:37;44.45;;;26.20;;
59434;SDS011;45241;49.768;8.636;2023-02-23T04:10:22;44.05;;;27.08;;
59434;SDS011;45241;49.768;8.636;2023-02-23T04:13:11;48.50;;;26.83;;
59434;SDS011;45241;49.768;8.636;2023-02-23T04:15:52;41.55;;;25.13;;
59434;SDS011;45241;49.768;8.636;2023-02-23T04:18:21;49.75;;;24.70;;
59434;SDS011;45241;49.768;8.636;2023-02-23T04:20:49;38.92;;;21.77;;
59434;SDS011;45241;49.768;8.636;2023-02-23T04:23:14;38.63;;;21.30;;
59434;SDS011;45241;49.768;8.636;2023-02-23T04:25:39;41.50;;;22.13;;
59434;SDS011;45241;49.768;8.636;2023-02-23T04:28:05;36.72;;;21.33;;
59434;SDS011;45241;49.768;8.636;2023-02-23T04:30:30;36.80;;;21.45;;
59434;SDS011;45241;49.768;8.636;2023-02-23T04:32:56;38.47;;;21.63;;
59434;SDS011;45241;49.768;8.636;2023-02-23T04:35:23;37.15;;;22.40;;
59434;SDS011;45241;49.768;8.636;2023-02-23T04:37:49;39.40;;;22.42;;
59434;SDS011;45241;49.768;8.636;2023-02-23T04:40:14;40.60;;;22.05;;
59434;SDS011;45241;49.768;8.636;2023-02-23T04:42:40;40.38;;;21.73;;
59434;SDS011;45241;49.768;8.636;2023-02-23T04:45:06;37.50;;;21.20;;
59434;SDS011;45241;49.768;8.636;2023-02-23T04:47:32;43.38;;;22.25;;
59434;SDS011;45241;49.768;8.636;2023-02-23T04:49:57;44.03;;;23.42;;
59434;SDS011;45241;49.768;8.636;2023-02-23T04:52:23;38.58;;;21.40;;
59434;SDS011;45241;49.768;8.636;2023-02-23T04:54:48;40.75;;;21.98;;
59434;SDS011;45241;49.768;8.636;2023-02-23T04:57:13;37.78;;;20.15;;
59434;SDS011;45241;49.768;8.636;2023-02-23T04:59:39;38.22;;;21.20;;
59434;SDS011;45241;49.768;8.636;2023-02-23T05:02:04;37.00;;;20.63;;
59434;SDS011;45241;49.768;8.636;2023-02-23T05:04:30;37.17;;;21.75;;
59434;SDS011;45241;49.768;8.636;2023-02-23T05:06:56;36.92;;;19.95;;
59434;SDS011;45241;49.768;8.636;2023-02-23T05:09:21;40.72;;;21.13;;
59434;SDS011;45241;49.768;8.636;2023-02-23T05:11:47;38.75;;;21.15;;
59434;SDS011;45241;49.768;8.636;2023-02-23T05:14:12;39.75;;;21.23;;
59434;SDS011;45241;49.768;8.636;2023-02-23T05:16:38;36.88;;;20.80;;
59434;SDS011;45241;49.768;8.636;2023-02-23T05:19:03;37.42;;;21.33;;
59434;SDS011;45241;49.768;8.636;2023-02-23T05:21:29;43.75;;;22.38;;
59434;SDS011;45241;49.768;8.636;2023-02-23T05:23:55;44.15;;;23.25;;
59434;SDS011;45241;49.768;8.636;2023-02-23T05:26:21;53.78;;;27.35;;
59434;SDS011;45241;49.768;8.636;2023-02-23T05:28:47;49.33;;;26.25;;
59434;SDS011;45241;49.768;8.636;2023-02-23T05:31:12;53.60;;;28.80;;
59434;SDS011;45241;49.768;8.636;2023-02-23T05:33:38;53.08;;;27.77;;
59434;SDS011;45241;49.768;8.636;2023-02-23T05:36:07;54.97;;;27.52;;
59434;SDS011;45241;49.768;8.636;2023-02-23T05:38:33;51.42;;;26.83;;
59434;SDS011;45241;49.768;8.636;2023-02-23T05:41:02;57.75;;;27.83;;
59434;SDS011;45241;49.768;8.636;2023-02-23T05:43:28;57.45;;;27.35;;
59434;SDS011;45241;49.768;8.636;2023-02-23T05:45:54;57.25;;;28.52;;
59434;SDS011;45241;49.768;8.636;2023-02-23T05:48:19;59.13;;;27.92;;
59434;SDS011;45241;49.768;8.636;2023-02-23T05:50:44;60.65;;;29.00;;
59434;SDS011;45241;49.768;8.636;2023-02-23T05:53:10;57.58;;;29.83;;
59434;SDS011;45241;49.768;8.636;2023-02-23T05:55:35;59.20;;;30.92;;
59434;SDS011;45241;49.768;8.636;2023-02-23T05:58:00;61.85;;;29.70;;
59434;SDS011;45241;49.768;8.636;2023-02-23T06:00:26;62.25;;;30.77;;
59434;SDS011;45241;49.768;8.636;2023-02-23T06:02:51;63.22;;;31.15;;
59434;SDS011;45241;49.768;8.636;2023-02-23T06:05:17;61.60;;;31.20;;
59434;SDS011;45241;49.768;8.636;2023-02-23T06:07:43;60.22;;;29.77;;
59434;SDS011;45241;49.768;8.636;2023-02-23T06:10:08;58.25;;;29.80;;
59434;SDS011;45241;49.768;8.636;2023-02-23T06:12:34;60.22;;;29.90;;
59434;SDS011;45241;49.768;8.636;2023-02-23T06:15:00;68.10;;;32.35;;
59434;SDS011;45241;49.768;8.636;2023-02-23T06:17:25;69.95;;;31.40;;
59434;SDS011;45241;49.768;8.636;2023-02-23T06:19:50;67.22;;;32.92;;
59434;SDS011;45241;49.768;8.636;2023-02-23T06:22:16;68.38;;;31.67;;
59434;SDS011;45241;49.768;8.636;2023-02-23T06:24:41;69.97;;;33.30;;
59434;SDS011;45241;49.768;8.636;2023-02-23T06:27:08;67.20;;;33.05;;
59434;SDS011;45241;49.768;8.636;2023-02-23T06:29:33;72.68;;;33.15;;
59434;SDS011;45241;49.768;8.636;2023-02-23T06:32:01;65.03;;;32.38;;
59434;SDS011;45241;49.768;8.636;2023-02-23T06:34:26;66.45;;;31.50;;
59434;SDS011;45241;49.768;8.636;2023-02-23T06:36:52;66.72;;;31.33;;
59434;SDS011;45241;49.768;8.636;2023-02-23T06:39:17;61.72;;;31.17;;
59434;SDS011;45241;49.768;8.636;2023-02-23T06:41:42;66.70;;;30.95;;
59434;SDS011;45241;49.768;8.636;2023-02-23T06:44:08;65.95;;;32.03;;
59434;SDS011;45241;49.768;8.636;2023-02-23T06:46:33;64.03;;;30.85;;
59434;SDS011;45241;49.768;8.636;2023-02-23T06:48:59;64.97;;;31.05;;
59434;SDS011;45241;49.768;8.636;2023-02-23T06:51:24;64.78;;;29.48;;
59434;SDS011;45241;49.768;8.636;2023-02-23T06:53:50;64.55;;;29.85;;
59434;SDS011;45241;49.768;8.636;2023-02-23T06:56:19;62.55;;;30.35;;
59434;SDS011;45241;49.768;8.636;2023-02-23T06:58:44;63.03;;;31.05;;
59434;SDS011;45241;49.768;8.636;2023-02-23T07:01:10;67.65;;;32.40;;
59434;SDS011;45241;49.768;8.636;2023-02-23T07:03:36;67.05;;;33.08;;
59434;SDS011;45241;49.768;8.636;2023-02-23T07:06:02;70.75;;;32.47;;
59434;SDS011;45241;49.768;8.636;2023-02-23T07:08:29;72.07;;;32.95;;
59434;SDS011;45241;49.768;8.636;2023-02-23T07:10:55;64.30;;;31.55;;
59434;SDS011;45241;49.768;8.636;2023-02-23T07:13:21;66.90;;;31.15;;
59434;SDS011;45241;49.768;8.636;2023-02-23T07:15:47;61.85;;;31.23;;
59434;SDS011;45241;49.768;8.636;2023-02-23T07:18:12;60.13;;;31.25;;
59434;SDS011;45241;49.768;8.636;2023-02-23T07:20:38;65.40;;;30.88;;
59434;SDS011;45241;49.768;8.636;2023-02-23T07:23:03;65.47;;;30.17;;
59434;SDS011;45241;49.768;8.636;2023-02-23T07:25:29;61.88;;;29.15;;
59434;SDS011;45241;49.768;8.636;2023-02-23T07:27:54;66.22;;;30.33;;
59434;SDS011;45241;49.768;8.636;2023-02-23T07:30:20;60.38;;;29.77;;
59434;SDS011;45241;49.768;8.636;2023-02-23T07:32:52;64.03;;;30.27;;
59434;SDS011;45241;49.768;8.636;2023-02-23T07:35:18;55.08;;;29.08;;
59434;SDS011;45241;49.768;8.636;2023-02-23T07:37:43;62.58;;;29.25;;
59434;SDS011;45241;49.768;8.636;2023-02-23T07:40:09;56.60;;;27.77;;
59434;SDS011;45241;49.768;8.636;2023-02-23T07:42:35;59.08;;;28.38;;
59434;SDS011;45241;49.768;8.636;2023-02-23T07:45:01;56.28;;;28.73;;
59434;SDS011;45241;49.768;8.636;2023-02-23T07:47:26;58.08;;;28.10;;
59434;SDS011;45241;49.768;8.636;2023-02-23T07:49:55;57.72;;;29.05;;
59434;SDS011;45241;49.768;8.636;2023-02-23T07:52:26;57.78;;;28.17;;
59434;SDS011;45241;49.768;8.636;2023-02-23T07:54:52;52.00;;;28.17;;
59434;SDS011;45241;49.768;8.636;2023-02-23T07:57:18;52.28;;;26.92;;
59434;SDS011;45241;49.768;8.636;2023-02-23T07:59:44;57.67;;;27.80;;
59434;SDS011;45241;49.768;8.636;2023-02-23T08:02:11;53.17;;;25.95;;
59434;SDS011;45241;49.768;8.636;2023-02-23T08:04:38;53.10;;;26.02;;
59434;SDS011;45241;49.768;8.636;2023-02-23T08:07:04;51.92;;;26.00;;
59434;SDS011;45241;49.768;8.636;2023-02-23T08:09:30;57.92;;;28.38;;
59434;SDS011;45241;49.768;8.636;2023-02-23T08:11:56;52.83;;;25.52;;
59434;SDS011;45241;49.768;8.636;2023-02-23T08:14:22;50.97;;;25.75;;
59434;SDS011;45241;49.768;8.636;2023-02-23T08:16:47;56.80;;;26.35;;
59434;SDS011;45241;49.768;8.636;2023-02-23T08:19:13;55.05;;;26.48;;
59434;SDS011;45241;49.768;8.636;2023-02-23T08:21:39;50.70;;;25.50;;
59434;SDS011;45241;49.768;8.636;2023-02-23T08:24:04;56.78;;;25.83;;
59434;SDS011;45241;49.768;8.636;2023-02-23T08:26:30;49.50;;;25.08;;
59434;SDS011;45241;49.768;8.636;2023-02-23T08:28:55;52.20;;;24.90;;
59434;SDS011;45241;49.768;8.636;2023-02-23T08:31:21;46.28;;;23.48;;
59434;SDS011;45241;49.768;8.636;2023-02-23T08:33:47;52.80;;;26.35;;
59434;SDS011;45241;49.768;8.636;2023-02-23T08:36:12;51.08;;;25.45;;
59434;SDS011;45241;49.768;8.636;2023-02-23T08:38:38;49.65;;;26.30;;
59434;SDS011;45241;49.768;8.636;2023-02-23T08:41:03;55.75;;;26.17;;
59434;SDS011;45241;49.768;8.636;2023-02-23T08:43:29;50.33;;;25.77;;
59434;SDS011;45241;49.768;8.636;2023-02-23T08:45:55;54.17;;;25.75;;
59434;SDS011;45241;49.768;8.636;2023-02-23T08:48:21;52.58;;;26.73;;
59434;SDS011;45241;49.768;8.636;2023-02-23T08:50:47;55.22;;;27.98;;
59434;SDS011;45241;49.768;8.636;2023-02-23T08:53:14;56.92;;;27.73;;
59434;SDS011;45241;49.768;8.636;2023-02-23T08:55:39;58.03;;;28.15;;
59434;SDS011;45241;49.768;8.636;2023-02-23T08:58:06;55.78;;;26.95;;
59434;SDS011;45241;49.768;8.636;2023-02-23T09:00:34;56.23;;;27.10;;
59434;SDS011;45241;49.768;8.636;2023-02-23T09:03:00;59.20;;;27.95;;
59434;SDS011;45241;49.768;8.636;2023-02-23T09:05:26;57.88;;;27.65;;
59434;SDS011;45241;49.768;8.636;2023-02-23T09:07:51;56.15;;;28.05;;
59434;SDS011;45241;49.768;8.636;2023-02-23T09:10:18;62.58;;;28.45;;
59434;SDS011;45241;49.768;8.636;2023-02-23T09:12:44;53.08;;;26.45;;
59434;SDS011;45241;49.768;8.636;2023-02-23T09:15:11;56.33;;;26.77;;
59434;SDS011;45241;49.768;8.636;2023-02-23T09:17:36;58.85;;;28.05;;
59434;SDS011;45241;49.768;8.636;2023-02-23T09:20:02;52.22;;;25.63;;
59434;SDS011;45241;49.768;8.636;2023-02-23T09:22:28;53.67;;;26.40;;
59434;SDS011;45241;49.768;8.636;2023-02-23T09:24:53;55.08;;;26.00;;
59434;SDS011;45241;49.768;8.636;2023-02-23T09:27:19;49.50;;;25.17;;
59434;SDS011;45241;49.768;8.636;2023-02-23T09:29:44;47.55;;;24.83;;
59434;SDS011;45241;49.768;8.636;2023-02-23T09:32:10;46.65;;;24.20;;
59434;SDS011;45241;49.768;8.636;2023-02-23T09:34:35;45.55;;;23.58;;
59434;SDS011;45241;49.768;8.636;2023-02-23T09:37:01;49.28;;;24.17;;
59434;SDS011;45241;49.768;8.636;2023-02-23T09:39:27;48.10;;;25.50;;
59434;SDS011;45241;49.768;8.636;2023-02-23T09:42:03;44.67;;;24.80;;
59434;SDS011;45241;49.768;8.636;2023-02-23T09:44:47;48.13;;;24.50;;
59434;SDS011;45241;49.768;8.636;2023-02-23T09:47:25;45.35;;;23.42;;
59434;SDS011;45241;49.768;8.636;2023-02-23T09:49:57;46.38;;;23.40;;
59434;SDS011;45241;49.768;8.636;2023-02-23T09:52:27;43.63;;;24.38;;
59434;SDS011;45241;49.768;8.636;2023-02-23T09:55:02;45.22;;;23.38;;
59434;SDS011;45241;49.768;8.636;2023-02-23T09:57:32;44.80;;;23.85;;
59434;SDS011;45241;49.768;8.636;2023-02-23T10:00:11;44.45;;;23.77;;
59434;SDS011;45241;49.768;8.636;2023-02-23T10:03:01;44.65;;;23.17;;
59434;SDS011;45241;49.768;8.636;2023-02-23T10:05:37;46.75;;;23.40;;
59434;SDS011;45241;49.768;8.636;2023-02-23T10:08:12;41.03;;;22.88;;
59434;SDS011;45241;49.768;8.636;2023-02-23T10:10:54;42.83;;;22.35;;
59434;SDS011;45241;49.768;8.636;2023-02-23T10:18:36;43.03;;;23.17;;
59434;SDS011;45241;49.768;8.636;2023-02-23T10:21:19;45.78;;;23.38;;
59434;SDS011;45241;49.768;8.636;2023-02-23T10:26:27;43.60;;;23.50;;
59434;SDS011;45241;49.768;8.636;2023-02-23T10:29:02;43.58;;;22.98;;
59434;SDS011;45241;49.768;8.636;2023-02-23T10:31:33;41.03;;;22.08;;
59434;SDS011;45241;49.768;8.636;2023-02-23T10:34:05;43.63;;;22.05;;
59434;SDS011;45241;49.768;8.636;2023-02-23T10:36:38;43.03;;;22.58;;
59434;SDS011;45241;49.768;8.636;2023-02-23T10:39:08;43.78;;;23.05;;
59434;SDS011;45241;49.768;8.636;2023-02-23T10:41:36;46.47;;;25.38;;
59434;SDS011;45241;49.768;8.636;2023-02-23T10:44:03;46.55;;;23.65;;
59434;SDS011;45241;49.768;8.636;2023-02-23T10:46:35;43.10;;;23.85;;
59434;SDS011;45241;49.768;8.636;2023-02-23T10:49:03;44.13;;;23.35;;
59434;SDS011;45241;49.768;8.636;2023-02-23T10:51:31;42.15;;;21.45;;
59434;SDS011;45241;49.768;8.636;2023-02-23T10:54:22;41.17;;;21.45;;
59434;SDS011;45241;49.768;8.636;2023-02-23T10:56:57;38.70;;;21.55;;
59434;SDS011;45241;49.768;8.636;2023-02-23T10:59:23;35.45;;;20.33;;
59434;SDS011;45241;49.768;8.636;2023-02-23T11:01:48;38.63;;;21.33;;
59434;SDS011;45241;49.768;8.636;2023-02-23T11:06:50;36.90;;;21.13;;
59434;SDS011;45241;49.768;8.636;2023-02-23T11:09:30;35.83;;;19.33;;
59434;SDS011;45241;49.768;8.636;2023-02-23T11:12:03;35.72;;;20.80;;
59434;SDS011;45241;49.768;8.636;2023-02-23T11:14:45;35.63;;;19.55;;
59434;SDS011;45241;49.768;8.636;2023-02-23T11:20:05;31.48;;;18.58;;
59434;SDS011;45241;49.768;8.636;2023-02-23T11:22:43;30.42;;;16.42;;
59434;SDS011;45241;49.768;8.636;2023-02-23T11:25:20;29.35;;;16.63;;
59434;SDS011;45241;49.768;8.636;2023-02-23T11:27:57;26.63;;;15.15;;
59434;SDS011;45241;49.768;8.636;2023-02-23T11:30:24;25.65;;;15.75;;
59434;SDS011;45241;49.768;8.636;2023-02-23T11:32:57;26.83;;;15.75;;
59434;SDS011;45241;49.768;8.636;2023-02-23T11:35:33;21.38;;;13.77;;
59434;SDS011;45241;49.768;8.636;2023-02-23T11:37:59;26.55;;;14.15;;
59434;SDS011;45241;49.768;8.636;2023-02-23T11:40:39;18.10;;;10.48;;
59434;SDS011;45241;49.768;8.636;2023-02-23T11:43:06;23.42;;;11.82;;
59434;SDS011;45241;49.768;8.636;2023-02-23T11:45:46;20.42;;;12.30;;
59434;SDS011;45241;49.768;8.636;2023-02-23T11:51:01;22.15;;;13.10;;
59434;SDS011;45241;49.768;8.636;2023-02-23T11:53:28;20.67;;;11.43;;
59434;SDS011;45241;49.768;8.636;2023-02-23T11:56:04;20.20;;;11.20;;
59434;SDS011;45241;49.768;8.636;2023-02-23T11:58:43;20.20;;;11.65;;
59434;SDS011;45241;49.768;8.636;2023-02-23T12:01:14;20.77;;;11.00;;
59434;SDS011;45241;49.768;8.636;2023-02-23T12:03:54;19.42;;;11.48;;
59434;SDS011;45241;49.768;8.636;2023-02-23T12:08:59;15.38;;;9.52;;
59434;SDS011;45241;49.768;8.636;2023-02-23T12:11:27;15.27;;;9.10;;
59434;SDS011;45241;49.768;8.636;2023-02-23T12:16:41;15.20;;;8.65;;
59434;SDS011;45241;49.768;8.636;2023-02-23T12:22:06;13.23;;;6.70;;
59434;SDS011;45241;49.768;8.636;2023-02-23T12:27:15;10.40;;;5.80;;
59434;SDS011;45241;49.768;8.636;2023-02-23T12:32:23;9.88;;;4.82;;
59434;SDS011;45241;49.768;8.636;2023-02-23T12:35:03;12.00;;;4.55;;
59434;SDS011;45241;49.768;8.636;2023-02-23T12:38:01;8.10;;;4.50;;
59434;SDS011;45241;49.768;8.636;2023-02-23T12:40:33;8.75;;;4.78;;
59434;SDS011;45241;49.768;8.636;2023-02-23T12:48:59;6.63;;;4.20;;
59434;SDS011;45241;49.768;8.636;2023-02-23T12:51:38;6.40;;;4.38;;
59434;SDS011;45241;49.768;8.636;2023-02-23T12:54:09;8.07;;;4.63;;
59434;SDS011;45241;49.768;8.636;2023-02-23T12:56:45;8.32;;;4.40;;
59434;SDS011;45241;49.768;8.636;2023-02-23T12:59:54;7.43;;;4.28;;
59434;SDS011;45241;49.768;8.636;2023-02-23T13:02:51;8.90;;;5.00;;
59434;SDS011;45241;49.768;8.636;2023-02-23T13:05:30;9.10;;;4.72;;
59434;SDS011;45241;49.768;8.636;2023-02-23T13:13:43;7.00;;;4.28;;
59434;SDS011;45241;49.768;8.636;2023-02-23T13:16:22;8.48;;;4.20;;
59434;SDS011;45241;49.768;8.636;2023-02-23T13:21:24;5.85;;;3.83;;
59434;SDS011;45241;49.768;8.636;2023-02-23T13:24:05;7.90;;;4.03;;
59434;SDS011;45241;49.768;8.636;2023-02-23T13:26:41;10.05;;;4.20;;
59434;SDS011;45241;49.768;8.636;2023-02-23T13:29:29;8.40;;;4.10;;
59434;SDS011;45241;49.768;8.636;2023-02-23T13:32:10;8.30;;;4.60;;
59434;SDS011;45241;49.768;8.636;2023-02-23T13:34:41;8.85;;;4.45;;
59434;SDS011;45241;49.768;8.636;2023-02-23T13:37:09;8.30;;;5.07;;
59434;SDS011;45241;49.768;8.636;2023-02-23T13:39:42;8.07;;;4.93;;
59434;SDS011;45241;49.768;8.636;2023-02-23T13:45:29;7.45;;;5.13;;
59434;SDS011;45241;49.768;8.636;2023-02-23T13:50:43;8.82;;;5.68;;
59434;SDS011;45241;49.768;8.636;2023-02-23T13:56:16;10.38;;;5.53;;
59434;SDS011;45241;49.768;8.636;2023-02-23T13:58:59;13.25;;;5.30;;
59434;SDS011;45241;49.768;8.636;2023-02-23T14:01:28;9.38;;;5.40;;
59434;SDS011;45241;49.768;8.636;2023-02-23T14:04:02;10.45;;;5.75;;
59434;SDS011;45241;49.768;8.636;2023-02-23T14:06:32;9.77;;;5.75;;
59434;SDS011;45241;49.768;8.636;2023-02-23T14:12:04;10.90;;;5.50;;
59434;SDS011;45241;49.768;8.636;2023-02-23T14:23:04;9.05;;;5.25;;
59434;SDS011;45241;49.768;8.636;2023-02-23T14:25:44;8.50;;;5.57;;
59434;SDS011;45241;49.768;8.636;2023-02-23T14:41:19;9.57;;;6.35;;
59434;SDS011;45241;49.768;8.636;2023-02-23T14:43:46;9.52;;;5.50;;
59434;SDS011;45241;49.768;8.636;2023-02-23T14:46:20;8.23;;;5.03;;
59434;SDS011;45241;49.768;8.636;2023-02-23T14:48:55;10.93;;;5.53;;
59434;SDS011;45241;49.768;8.636;2023-02-23T14:53:58;8.43;;;5.13;;
59434;SDS011;45241;49.768;8.636;2023-02-23T14:56:24;8.35;;;5.30;;
59434;SDS011;45241;49.768;8.636;2023-02-23T14:58:53;7.45;;;5.20;;
59434;SDS011;45241;49.768;8.636;2023-02-23T15:01:32;9.05;;;5.72;;
59434;SDS011;45241;49.768;8.636;2023-02-23T15:04:09;7.35;;;4.80;;
59434;SDS011;45241;49.768;8.636;2023-02-23T15:06:37;8.52;;;5.85;;
59434;SDS011;45241;49.768;8.636;2023-02-23T15:09:06;9.98;;;5.93;;
59434;SDS011;45241;49.768;8.636;2023-02-23T15:11:39;8.32;;;5.15;;
59434;SDS011;45241;49.768;8.636;2023-02-23T15:14:08;8.85;;;4.65;;
59434;SDS011;45241;49.768;8.636;2023-02-23T15:16:38;10.30;;;5.28;;
59434;SDS011;45241;49.768;8.636;2023-02-23T15:19:04;11.70;;;5.38;;
59434;SDS011;45241;49.768;8.636;2023-02-23T15:21:29;7.70;;;5.10;;
59434;SDS011;45241;49.768;8.636;2023-02-23T15:24:02;6.97;;;4.68;;
59434;SDS011;45241;49.768;8.636;2023-02-23T15:26:35;9.65;;;4.90;;
59434;SDS011;45241;49.768;8.636;2023-02-23T15:29:15;7.47;;;5.25;;
59434;SDS011;45241;49.768;8.636;2023-02-23T15:31:43;8.25;;;5.47;;
59434;SDS011;45241;49.768;8.636;2023-02-23T15:34:34;8.95;;;5.22;;
59434;SDS011;45241;49.768;8.636;2023-02-23T15:37:00;9.95;;;4.88;;
59434;SDS011;45241;49.768;8.636;2023-02-23T15:39:32;8.77;;;5.07;;
59434;SDS011;45241;49.768;8.636;2023-02-23T15:42:02;7.65;;;4.82;;
59434;SDS011;45241;49.768;8.636;2023-02-23T15:44:29;10.00;;;5.85;;
59434;SDS011;45241;49.768;8.636;2023-02-23T15:47:00;8.18;;;5.15;;
59434;SDS011;45241;49.768;8.636;2023-02-23T15:49:30;9.30;;;5.27;;
59434;SDS011;45241;49.768;8.636;2023-02-23T15:55:03;9.68;;;5.68;;
59434;SDS011;45241;49.768;8.636;2023-02-23T15:57:33;10.48;;;5.63;;
59434;SDS011;45241;49.768;8.636;2023-02-23T16:00:19;10.05;;;5.63;;
59434;SDS011;45241;49.768;8.636;2023-02-23T16:02:56;7.82;;;5.28;;
59434;SDS011;45241;49.768;8.636;2023-02-23T16:05:23;7.88;;;5.28;;
59434;SDS011;45241;49.768;8.636;2023-02-23T16:08:00;7.93;;;4.97;;
59434;SDS011;45241;49.768;8.636;2023-02-23T16:10:30;9.35;;;6.13;;
59434;SDS011;45241;49.768;8.636;2023-02-23T16:13:06;8.85;;;5.40;;
59434;SDS011;45241;49.768;8.636;2023-02-23T16:15:32;9.23;;;5.72;;
59434;SDS011;45241;49.768;8.636;2023-02-23T16:18:01;7.57;;;5.35;;
59434;SDS011;45241;49.768;8.636;2023-02-23T16:20:37;8.73;;;5.85;;
59434;SDS011;45241;49.768;8.636;2023-02-23T16:23:06;12.32;;;6.15;;
59434;SDS011;45241;49.768;8.636;2023-02-23T16:25:39;12.45;;;6.00;;
59434;SDS011;45241;49.768;8.636;2023-02-23T16:28:07;11.93;;;5.97;;
59434;SDS011;45241;49.768;8.636;2023-02-23T16:30:41;11.27;;;5.80;;
59434;SDS011;45241;49.768;8.636;2023-02-23T16:33:20;9.90;;;6.50;;
59434;SDS011;45241;49.768;8.636;2023-02-23T16:35:48;11.18;;;6.28;;
59434;SDS011;45241;49.768;8.636;2023-02-23T16:38:25;10.57;;;5.82;;
59434;SDS011;45241;49.768;8.636;2023-02-23T16:40:56;13.15;;;6.82;;
59434;SDS011;45241;49.768;8.636;2023-02-23T16:43:22;13.27;;;6.45;;
59434;SDS011;45241;49.768;8.636;2023-02-23T16:45:47;12.07;;;5.85;;
59434;SDS011;45241;49.768;8.636;2023-02-23T16:48:16;14.10;;;6.35;;
59434;SDS011;45241;49.768;8.636;2023-02-23T16:50:42;15.02;;;6.10;;